createdAt,value
2018-12-22T00:00:28.742Z,992.63
2018-12-22T00:01:28.719Z,992.71
2018-12-22T00:02:28.778Z,992.64
2018-12-22T00:03:28.694Z,992.73
2018-12-22T00:04:28.697Z,992.71
2018-12-22T00:05:28.710Z,992.70
2018-12-22T00:06:28.673Z,992.73
2018-12-22T00:07:28.656Z,992.72
2018-12-22T00:08:28.653Z,992.72
2018-12-22T00:09:28.623Z,992.66
2018-12-22T00:10:28.644Z,992.68
2018-12-22T00:11:28.613Z,992.61
2018-12-22T00:12:28.616Z,992.67
2018-12-22T00:13:28.588Z,992.75
2018-12-22T00:14:28.574Z,992.70
2018-12-22T00:15:28.563Z,992.73
2018-12-22T00:16:28.569Z,992.63
2018-12-22T00:17:28.592Z,992.73
2018-12-22T00:18:28.559Z,992.61
2018-12-22T00:19:28.528Z,992.75
2018-12-22T00:20:28.499Z,992.74
2018-12-22T00:21:28.501Z,992.77
2018-12-22T00:22:28.508Z,992.74
2018-12-22T00:23:28.488Z,992.79
2018-12-22T00:24:28.465Z,992.79
2018-12-22T00:25:28.467Z,992.77
2018-12-22T00:26:28.439Z,992.82
2018-12-22T00:27:28.443Z,992.81
2018-12-22T00:28:28.424Z,992.88
2018-12-22T00:29:28.424Z,992.88
2018-12-22T00:30:28.401Z,992.86
2018-12-22T00:31:28.394Z,992.81
2018-12-22T00:32:28.401Z,992.91
2018-12-22T00:33:28.385Z,992.76
2018-12-22T00:34:28.347Z,992.84
2018-12-22T00:35:28.334Z,992.92
2018-12-22T00:36:28.337Z,992.97
2018-12-22T00:37:28.342Z,992.90
2018-12-22T00:38:28.317Z,992.94
2018-12-22T00:39:28.313Z,992.94
2018-12-22T00:40:28.300Z,992.94
2018-12-22T00:41:28.274Z,992.98
2018-12-22T00:42:28.275Z,992.91
2018-12-22T00:43:28.287Z,993.01
2018-12-22T00:44:28.249Z,992.96
2018-12-22T00:45:28.265Z,992.97
2018-12-22T00:46:29.713Z,993.02
2018-12-22T00:47:28.209Z,993.07
2018-12-22T00:48:28.355Z,993.02
2018-12-22T00:49:28.200Z,993.07
2018-12-22T00:50:28.196Z,993.09
2018-12-22T00:51:28.170Z,993.12
2018-12-22T00:52:28.143Z,993.08
2018-12-22T00:53:28.177Z,993.14
2018-12-22T00:54:28.129Z,993.12
2018-12-22T00:55:28.127Z,993.27
2018-12-22T00:56:28.138Z,993.15
2018-12-22T00:57:28.105Z,993.20
2018-12-22T00:58:30.787Z,993.23
2018-12-22T00:59:28.084Z,993.28
2018-12-22T01:00:28.072Z,993.22
2018-12-22T01:01:28.065Z,993.29
2018-12-22T01:02:28.079Z,993.31
2018-12-22T01:03:28.053Z,993.35
2018-12-22T01:04:28.020Z,993.47
2018-12-22T01:05:28.017Z,993.52
2018-12-22T01:06:27.998Z,993.48
2018-12-22T01:07:28.102Z,993.53
2018-12-22T01:08:28.010Z,993.57
2018-12-22T01:09:27.984Z,993.48
2018-12-22T01:10:27.959Z,993.55
2018-12-22T01:11:27.955Z,993.62
2018-12-22T01:12:27.974Z,993.55
2018-12-22T01:13:27.922Z,993.57
2018-12-22T01:14:27.917Z,993.64
2018-12-22T01:15:27.909Z,993.65
2018-12-22T01:16:27.888Z,993.65
2018-12-22T01:17:27.900Z,993.57
2018-12-22T01:18:27.881Z,993.57
2018-12-22T01:19:27.865Z,993.73
2018-12-22T01:20:27.859Z,993.67
2018-12-22T01:21:27.849Z,993.74
2018-12-22T01:22:27.846Z,993.91
2018-12-22T01:23:27.831Z,993.83
2018-12-22T01:24:27.794Z,993.81
2018-12-22T01:25:27.778Z,993.91
2018-12-22T01:26:28.697Z,993.87
2018-12-22T01:27:27.790Z,993.86
2018-12-22T01:28:27.762Z,993.92
2018-12-22T01:29:27.771Z,993.84
2018-12-22T01:30:27.743Z,993.88
2018-12-22T01:31:27.737Z,993.84
2018-12-22T01:32:27.752Z,993.98
2018-12-22T01:33:27.704Z,993.90
2018-12-22T01:34:27.700Z,994.02
2018-12-22T01:35:27.698Z,993.95
2018-12-22T01:36:27.811Z,993.89
2018-12-22T01:37:27.696Z,993.97
2018-12-22T01:38:27.660Z,993.90
2018-12-22T01:39:27.636Z,993.81
2018-12-22T01:40:27.644Z,993.88
2018-12-22T01:41:27.614Z,993.85
2018-12-22T01:42:27.624Z,993.92
2018-12-22T01:43:27.592Z,993.80
2018-12-22T01:44:27.596Z,993.90
2018-12-22T01:45:27.607Z,993.68
2018-12-22T01:46:27.582Z,993.91
2018-12-22T01:47:27.578Z,993.96
2018-12-22T01:48:27.543Z,993.91
2018-12-22T01:49:27.526Z,993.94
2018-12-22T01:50:27.509Z,993.99
2018-12-22T01:51:27.504Z,994.03
2018-12-22T01:52:27.512Z,993.94
2018-12-22T01:53:27.486Z,993.94
2018-12-22T01:54:27.482Z,993.97
2018-12-22T01:55:27.475Z,993.99
2018-12-22T01:56:27.448Z,994.11
2018-12-22T01:57:27.511Z,994.05
2018-12-22T01:58:27.419Z,994.06
2018-12-22T01:59:27.421Z,994.02
2018-12-22T02:00:27.405Z,994.00
2018-12-22T02:01:27.414Z,994.07
2018-12-22T02:02:27.409Z,994.05
2018-12-22T02:03:27.376Z,994.11
2018-12-22T02:04:27.362Z,994.12
2018-12-22T02:05:27.364Z,993.93
2018-12-22T02:06:27.336Z,994.19
2018-12-22T02:07:27.332Z,994.16
2018-12-22T02:08:27.347Z,993.96
2018-12-22T02:09:27.324Z,994.19
2018-12-22T02:10:27.289Z,994.21
2018-12-22T02:11:27.293Z,994.20
2018-12-22T02:12:27.324Z,994.21
2018-12-22T02:13:27.282Z,994.15
2018-12-22T02:14:27.262Z,994.28
2018-12-22T02:15:27.268Z,994.11
2018-12-22T02:16:27.225Z,994.30
2018-12-22T02:17:27.241Z,994.32
2018-12-22T02:18:27.251Z,994.32
2018-12-22T02:19:27.226Z,994.27
2018-12-22T02:20:27.197Z,994.30
2018-12-22T02:21:27.170Z,994.43
2018-12-22T02:22:27.168Z,994.36
2018-12-22T02:23:27.179Z,994.26
2018-12-22T02:24:27.152Z,994.40
2018-12-22T02:25:27.133Z,994.25
2018-12-22T02:26:27.134Z,994.38
2018-12-22T02:27:27.124Z,994.39
2018-12-22T02:28:27.109Z,994.42
2018-12-22T02:29:27.079Z,994.40
2018-12-22T02:30:27.091Z,994.45
2018-12-22T02:31:27.064Z,994.41
2018-12-22T02:32:27.056Z,994.42
2018-12-22T02:33:27.069Z,994.43
2018-12-22T02:34:27.039Z,994.46
2018-12-22T02:35:27.018Z,994.43
2018-12-22T02:36:27.037Z,994.45
2018-12-22T02:37:27.002Z,994.39
2018-12-22T02:38:27.010Z,994.49
2018-12-22T02:39:27.007Z,994.45
2018-12-22T02:40:26.976Z,994.46
2018-12-22T02:41:26.972Z,994.55
2018-12-22T02:42:26.934Z,994.54
2018-12-22T02:43:26.941Z,994.47
2018-12-22T02:44:26.952Z,994.65
2018-12-22T02:45:26.924Z,994.51
2018-12-22T02:46:26.897Z,994.54
2018-12-22T02:47:26.893Z,994.52
2018-12-22T02:48:26.903Z,994.61
2018-12-22T02:49:26.867Z,994.66
2018-12-22T02:50:26.862Z,994.53
2018-12-22T02:51:26.897Z,994.52
2018-12-22T02:52:26.822Z,994.63
2018-12-22T02:53:26.832Z,994.57
2018-12-22T02:54:26.803Z,994.55
2018-12-22T02:55:26.787Z,994.59
2018-12-22T02:56:26.797Z,994.59
2018-12-22T02:57:26.801Z,994.71
2018-12-22T02:58:26.813Z,994.68
2018-12-22T02:59:26.765Z,994.69
2018-12-22T03:00:26.736Z,994.62
2018-12-22T03:01:26.726Z,994.55
2018-12-22T03:02:26.731Z,994.63
2018-12-22T03:03:26.712Z,994.54
2018-12-22T03:04:26.737Z,994.61
2018-12-22T03:05:26.708Z,994.66
2018-12-22T03:06:26.686Z,994.58
2018-12-22T03:07:26.664Z,994.59
2018-12-22T03:08:26.735Z,994.62
2018-12-22T03:09:26.640Z,994.73
2018-12-22T03:10:26.644Z,994.66
2018-12-22T03:11:26.625Z,994.64
2018-12-22T03:12:26.633Z,994.76
2018-12-22T03:13:26.633Z,994.78
2018-12-22T03:14:26.598Z,994.72
2018-12-22T03:15:26.575Z,994.75
2018-12-22T03:16:26.587Z,994.75
2018-12-22T03:17:26.562Z,994.72
2018-12-22T03:18:26.569Z,994.72
2018-12-22T03:19:26.546Z,994.74
2018-12-22T03:20:26.533Z,994.70
2018-12-22T03:21:26.508Z,994.63
2018-12-22T03:22:26.509Z,994.75
2018-12-22T03:23:26.524Z,994.78
2018-12-22T03:24:26.488Z,994.75
2018-12-22T03:25:26.475Z,994.80
2018-12-22T03:26:26.464Z,994.84
2018-12-22T03:27:26.448Z,994.82
2018-12-22T03:28:26.464Z,994.87
2018-12-22T03:29:26.456Z,994.89
2018-12-22T03:30:26.428Z,994.89
2018-12-22T03:31:27.318Z,994.87
2018-12-22T03:32:26.379Z,994.96
2018-12-22T03:33:26.389Z,994.85
2018-12-22T03:34:26.393Z,994.92
2018-12-22T03:35:26.357Z,994.97
2018-12-22T03:36:26.349Z,994.92
2018-12-22T03:37:26.352Z,994.97
2018-12-22T03:38:26.358Z,994.94
2018-12-22T03:39:26.323Z,994.97
2018-12-22T03:40:26.324Z,995.04
2018-12-22T03:41:26.298Z,995.02
2018-12-22T03:42:26.286Z,995.00
2018-12-22T03:43:26.290Z,995.09
2018-12-22T03:44:26.285Z,995.04
2018-12-22T03:45:26.265Z,995.10
2018-12-22T03:46:26.244Z,995.18
2018-12-22T03:47:26.228Z,995.15
2018-12-22T03:48:26.227Z,995.21
2018-12-22T03:49:26.228Z,995.19
2018-12-22T03:50:26.220Z,995.26
2018-12-22T03:51:26.178Z,995.21
2018-12-22T03:52:26.163Z,995.21
2018-12-22T03:53:26.165Z,995.23
2018-12-22T03:54:26.153Z,995.31
2018-12-22T03:55:26.165Z,995.39
2018-12-22T03:56:26.125Z,995.28
2018-12-22T03:57:26.132Z,995.38
2018-12-22T03:58:26.096Z,995.41
2018-12-22T03:59:26.115Z,995.34
2018-12-22T04:00:26.111Z,995.41
2018-12-22T04:01:26.075Z,995.39
2018-12-22T04:02:26.075Z,995.34
2018-12-22T04:03:26.079Z,995.40
2018-12-22T04:04:26.031Z,995.40
2018-12-22T04:05:26.017Z,995.34
2018-12-22T04:06:26.015Z,995.39
2018-12-22T04:07:26.000Z,995.36
2018-12-22T04:08:25.984Z,995.36
2018-12-22T04:09:25.994Z,995.34
2018-12-22T04:10:25.993Z,995.44
2018-12-22T04:11:25.950Z,995.44
2018-12-22T04:12:25.960Z,995.34
2018-12-22T04:13:25.960Z,995.34
2018-12-22T04:14:25.934Z,995.41
2018-12-22T04:15:25.952Z,995.40
2018-12-22T04:16:25.898Z,995.46
2018-12-22T04:17:25.910Z,995.41
2018-12-22T04:18:25.871Z,995.42
2018-12-22T04:19:25.867Z,995.46
2018-12-22T04:20:25.863Z,995.42
2018-12-22T04:21:25.893Z,995.39
2018-12-22T04:22:25.853Z,995.48
2018-12-22T04:23:25.860Z,995.43
2018-12-22T04:24:25.809Z,995.50
2018-12-22T04:25:25.826Z,995.44
2018-12-22T04:26:25.813Z,995.51
2018-12-22T04:27:25.788Z,995.53
2018-12-22T04:28:25.763Z,995.52
2018-12-22T04:29:33.612Z,995.51
2018-12-22T04:30:26.763Z,995.52
2018-12-22T04:31:25.760Z,995.54
2018-12-22T04:32:25.760Z,995.59
2018-12-22T04:33:25.755Z,995.54
2018-12-22T04:34:25.705Z,995.54
2018-12-22T04:35:25.842Z,995.68
2018-12-22T04:36:25.685Z,995.60
2018-12-22T04:37:25.693Z,995.63
2018-12-22T04:38:25.669Z,995.62
2018-12-22T04:39:25.661Z,995.69
2018-12-22T04:40:25.669Z,995.76
2018-12-22T04:41:25.630Z,995.64
2018-12-22T04:42:25.623Z,995.68
2018-12-22T04:43:25.630Z,995.76
2018-12-22T04:44:25.597Z,995.71
2018-12-22T04:45:25.632Z,995.62
2018-12-22T04:46:25.607Z,995.69
2018-12-22T04:47:25.550Z,995.71
2018-12-22T04:48:25.558Z,995.69
2018-12-22T04:49:25.535Z,995.68
2018-12-22T04:50:25.546Z,995.78
2018-12-22T04:51:25.513Z,995.72
2018-12-22T04:52:25.511Z,995.74
2018-12-22T04:53:25.486Z,995.74
2018-12-22T04:54:25.494Z,995.69
2018-12-22T04:55:25.500Z,995.65
2018-12-22T04:56:25.470Z,995.67
2018-12-22T04:57:25.446Z,995.67
2018-12-22T04:58:25.456Z,995.65
2018-12-22T04:59:25.425Z,995.66
2018-12-22T05:00:25.437Z,995.67
2018-12-22T05:01:25.435Z,995.65
2018-12-22T05:02:25.418Z,995.73
2018-12-22T05:03:25.381Z,995.65
2018-12-22T05:04:25.383Z,995.70
2018-12-22T05:05:25.394Z,995.69
2018-12-22T05:06:25.340Z,995.78
2018-12-22T05:07:25.370Z,995.68
2018-12-22T05:08:25.327Z,995.72
2018-12-22T05:09:25.320Z,995.72
2018-12-22T05:10:25.324Z,995.73
2018-12-22T05:11:25.313Z,995.83
2018-12-22T05:12:25.307Z,995.80
2018-12-22T05:13:25.277Z,995.82
2018-12-22T05:14:25.348Z,995.85
2018-12-22T05:15:25.265Z,995.71
2018-12-22T05:16:25.236Z,995.88
2018-12-22T05:17:25.242Z,995.91
2018-12-22T05:18:25.238Z,995.93
2018-12-22T05:19:25.211Z,995.88
2018-12-22T05:20:25.232Z,995.93
2018-12-22T05:21:25.194Z,995.83
2018-12-22T05:22:25.189Z,995.92
2018-12-22T05:23:25.186Z,995.86
2018-12-22T05:24:25.145Z,995.98
2018-12-22T05:25:25.160Z,995.97
2018-12-22T05:26:25.119Z,995.98
2018-12-22T05:27:25.110Z,995.87
2018-12-22T05:28:25.114Z,995.94
2018-12-22T05:29:25.092Z,995.88
2018-12-22T05:30:25.125Z,995.87
2018-12-22T05:31:25.062Z,995.97
2018-12-22T05:32:25.070Z,995.95
2018-12-22T05:33:25.047Z,996.05
2018-12-22T05:34:25.052Z,996.03
2018-12-22T05:35:25.057Z,996.00
2018-12-22T05:36:25.025Z,996.03
2018-12-22T05:37:24.998Z,996.07
2018-12-22T05:38:25.005Z,995.91
2018-12-22T05:39:24.988Z,996.04
2018-12-22T05:40:24.997Z,996.06
2018-12-22T05:41:24.964Z,996.08
2018-12-22T05:42:24.963Z,996.03
2018-12-22T05:43:24.971Z,996.08
2018-12-22T05:44:24.927Z,996.00
2018-12-22T05:45:24.923Z,996.09
2018-12-22T05:46:24.921Z,996.07
2018-12-22T05:47:24.904Z,996.02
2018-12-22T05:48:24.896Z,996.10
2018-12-22T05:49:24.871Z,996.13
2018-12-22T05:50:24.877Z,996.05
2018-12-22T05:51:24.852Z,996.16
2018-12-22T05:52:24.855Z,996.14
2018-12-22T05:53:24.833Z,996.09
2018-12-22T05:54:24.845Z,996.14
2018-12-22T05:55:24.812Z,996.14
2018-12-22T05:56:24.822Z,996.14
2018-12-22T05:57:24.777Z,996.12
2018-12-22T05:58:24.775Z,996.12
2018-12-22T05:59:24.754Z,996.13
2018-12-22T06:00:24.786Z,996.13
2018-12-22T06:01:24.742Z,996.11
2018-12-22T06:02:24.730Z,996.13
2018-12-22T06:03:24.705Z,996.15
2018-12-22T06:04:24.708Z,996.13
2018-12-22T06:05:24.720Z,996.14
2018-12-22T06:06:24.709Z,996.18
2018-12-22T06:07:24.687Z,996.17
2018-12-22T06:08:24.660Z,996.11
2018-12-22T06:09:24.659Z,996.11
2018-12-22T06:10:24.677Z,996.16
2018-12-22T06:11:24.646Z,996.19
2018-12-22T06:12:24.624Z,996.12
2018-12-22T06:13:24.618Z,996.10
2018-12-22T06:14:24.606Z,996.16
2018-12-22T06:15:24.618Z,996.19
2018-12-22T06:16:24.565Z,996.17
2018-12-22T06:17:24.555Z,996.19
2018-12-22T06:18:24.556Z,996.20
2018-12-22T06:19:24.569Z,996.14
2018-12-22T06:20:24.551Z,996.20
2018-12-22T06:21:24.525Z,996.15
2018-12-22T06:22:24.502Z,996.20
2018-12-22T06:23:26.665Z,996.18
2018-12-22T06:24:24.500Z,996.18
2018-12-22T06:25:24.498Z,996.19
2018-12-22T06:26:24.506Z,996.21
2018-12-22T06:27:24.472Z,996.16
2018-12-22T06:28:24.443Z,996.20
2018-12-22T06:29:24.424Z,996.15
2018-12-22T06:30:24.426Z,996.21
2018-12-22T06:31:24.410Z,996.22
2018-12-22T06:32:24.422Z,996.19
2018-12-22T06:33:24.382Z,996.23
2018-12-22T06:34:24.371Z,996.19
2018-12-22T06:35:24.380Z,996.23
2018-12-22T06:36:24.370Z,996.22
2018-12-22T06:37:24.346Z,996.27
2018-12-22T06:38:24.351Z,996.24
2018-12-22T06:39:24.318Z,996.27
2018-12-22T06:40:24.353Z,996.28
2018-12-22T06:41:24.292Z,996.31
2018-12-22T06:42:24.290Z,996.31
2018-12-22T06:43:24.272Z,996.28
2018-12-22T06:44:24.278Z,996.36
2018-12-22T06:45:24.256Z,996.31
2018-12-22T06:46:24.267Z,996.32
2018-12-22T06:47:24.268Z,996.38
2018-12-22T06:48:24.218Z,996.32
2018-12-22T06:49:24.206Z,996.42
2018-12-22T06:50:24.244Z,996.44
2018-12-22T06:51:24.185Z,996.43
2018-12-22T06:52:24.173Z,996.39
2018-12-22T06:53:24.169Z,996.45
2018-12-22T06:54:24.153Z,996.50
2018-12-22T06:55:24.174Z,996.54
2018-12-22T06:56:24.174Z,996.49
2018-12-22T06:57:24.129Z,996.52
2018-12-22T06:58:24.116Z,996.60
2018-12-22T06:59:24.115Z,996.60
2018-12-22T07:00:24.087Z,996.61
2018-12-22T07:01:24.092Z,996.57
2018-12-22T07:02:24.096Z,996.60
2018-12-22T07:03:24.039Z,996.66
2018-12-22T07:04:24.043Z,996.67
2018-12-22T07:05:24.045Z,996.67
2018-12-22T07:06:24.050Z,996.66
2018-12-22T07:07:24.021Z,996.67
2018-12-22T07:08:24.033Z,996.71
2018-12-22T07:09:24.007Z,996.73
2018-12-22T07:10:25.556Z,996.78
2018-12-22T07:11:24.010Z,996.76
2018-12-22T07:12:23.958Z,996.80
2018-12-22T07:13:23.933Z,996.78
2018-12-22T07:14:23.924Z,996.84
2018-12-22T07:15:23.912Z,996.76
2018-12-22T07:16:23.940Z,996.83
2018-12-22T07:17:23.930Z,996.86
2018-12-22T07:18:23.904Z,996.83
2018-12-22T07:19:23.881Z,996.84
2018-12-22T07:20:23.915Z,996.93
2018-12-22T07:21:23.883Z,996.86
2018-12-22T07:22:23.860Z,996.86
2018-12-22T07:23:23.837Z,996.86
2018-12-22T07:24:23.829Z,996.89
2018-12-22T07:25:23.834Z,996.87
2018-12-22T07:26:23.813Z,996.96
2018-12-22T07:27:23.785Z,996.96
2018-12-22T07:28:23.789Z,996.97
2018-12-22T07:29:23.774Z,996.95
2018-12-22T07:30:26.302Z,996.96
2018-12-22T07:31:23.774Z,996.97
2018-12-22T07:32:23.739Z,996.89
2018-12-22T07:33:23.717Z,996.84
2018-12-22T07:34:23.719Z,996.96
2018-12-22T07:35:23.708Z,996.98
2018-12-22T07:36:25.273Z,996.98
2018-12-22T07:37:23.682Z,996.98
2018-12-22T07:38:23.656Z,996.98
2018-12-22T07:39:23.654Z,997.00
2018-12-22T07:40:23.653Z,997.12
2018-12-22T07:41:24.262Z,997.05
2018-12-22T07:42:23.621Z,997.08
2018-12-22T07:43:23.616Z,997.04
2018-12-22T07:44:23.594Z,997.07
2018-12-22T07:45:23.604Z,997.06
2018-12-22T07:46:23.602Z,997.05
2018-12-22T07:47:23.559Z,997.08
2018-12-22T07:48:23.560Z,997.18
2018-12-22T07:49:23.564Z,997.15
2018-12-22T07:50:23.541Z,997.13
2018-12-22T07:51:23.602Z,997.14
2018-12-22T07:52:23.508Z,997.13
2018-12-22T07:53:23.497Z,997.20
2018-12-22T07:54:23.497Z,997.19
2018-12-22T07:55:23.492Z,997.14
2018-12-22T07:56:24.348Z,997.19
2018-12-22T07:57:23.446Z,997.13
2018-12-22T07:58:24.262Z,997.20
2018-12-22T07:59:24.333Z,997.13
2018-12-22T08:00:23.432Z,997.23
2018-12-22T08:01:23.456Z,997.17
2018-12-22T08:02:23.413Z,997.21
2018-12-22T08:03:23.392Z,997.13
2018-12-22T08:04:23.385Z,997.16
2018-12-22T08:05:23.419Z,997.17
2018-12-22T08:06:23.363Z,997.17
2018-12-22T08:07:23.341Z,997.22
2018-12-22T08:08:23.746Z,997.20
2018-12-22T08:09:23.340Z,997.28
2018-12-22T08:10:23.331Z,997.24
2018-12-22T08:11:23.382Z,997.33
2018-12-22T08:12:23.307Z,997.29
2018-12-22T08:13:23.287Z,997.30
2018-12-22T08:14:23.396Z,997.32
2018-12-22T08:15:23.305Z,997.32
2018-12-22T08:16:23.349Z,997.29
2018-12-22T08:17:23.234Z,997.34
2018-12-22T08:18:23.216Z,997.34
2018-12-22T08:19:23.220Z,997.31
2018-12-22T08:20:23.232Z,997.33
2018-12-22T08:21:23.239Z,997.39
2018-12-22T08:22:23.183Z,997.39
2018-12-22T08:23:23.430Z,997.38
2018-12-22T08:24:23.189Z,997.40
2018-12-22T08:25:23.231Z,997.41
2018-12-22T08:26:23.158Z,997.45
2018-12-22T08:27:23.140Z,997.42
2018-12-22T08:28:23.167Z,997.46
2018-12-22T08:29:23.101Z,997.46
2018-12-22T08:30:23.108Z,997.47
2018-12-22T08:31:23.221Z,997.56
2018-12-22T08:32:23.073Z,997.59
2018-12-22T08:33:23.066Z,997.55
2018-12-22T08:34:23.048Z,997.62
2018-12-22T08:35:23.056Z,997.57
2018-12-22T08:36:23.027Z,997.57
2018-12-22T08:37:23.049Z,997.62
2018-12-22T08:38:23.007Z,997.62
2018-12-22T08:39:22.986Z,997.66
2018-12-22T08:40:23.024Z,997.67
2018-12-22T08:41:22.977Z,997.67
2018-12-22T08:42:22.961Z,997.70
2018-12-22T08:43:22.948Z,997.73
2018-12-22T08:44:22.955Z,997.74
2018-12-22T08:45:23.000Z,997.78
2018-12-22T08:46:22.926Z,997.79
2018-12-22T08:47:22.911Z,997.81
2018-12-22T08:48:22.916Z,997.82
2018-12-22T08:49:22.884Z,997.87
2018-12-22T08:50:22.859Z,997.88
2018-12-22T08:51:22.901Z,997.89
2018-12-22T08:52:22.871Z,997.92
2018-12-22T08:53:22.858Z,997.96
2018-12-22T08:54:22.847Z,997.97
2018-12-22T08:55:22.821Z,997.94
2018-12-22T08:56:22.836Z,997.97
2018-12-22T08:57:22.802Z,998.01
2018-12-22T08:58:22.793Z,997.99
2018-12-22T08:59:22.791Z,997.99
2018-12-22T09:00:22.824Z,998.05
2018-12-22T09:01:22.761Z,998.09
2018-12-22T09:02:22.734Z,998.16
2018-12-22T09:03:22.719Z,998.09
2018-12-22T09:04:22.725Z,998.16
2018-12-22T09:05:22.728Z,998.17
2018-12-22T09:06:22.741Z,998.19
2018-12-22T09:07:22.705Z,998.17
2018-12-22T09:08:22.697Z,998.21
2018-12-22T09:09:22.662Z,998.22
2018-12-22T09:10:22.650Z,998.21
2018-12-22T09:11:22.658Z,998.22
2018-12-22T09:12:22.636Z,998.26
2018-12-22T09:13:22.644Z,998.25
2018-12-22T09:14:22.601Z,998.24
2018-12-22T09:15:22.598Z,998.26
2018-12-22T09:16:22.647Z,998.22
2018-12-22T09:17:22.598Z,998.26
2018-12-22T09:18:22.561Z,998.31
2018-12-22T09:19:22.573Z,998.32
2018-12-22T09:20:22.526Z,998.33
2018-12-22T09:21:22.543Z,998.31
2018-12-22T09:22:22.522Z,998.24
2018-12-22T09:23:22.524Z,998.37
2018-12-22T09:24:22.505Z,998.34
2018-12-22T09:25:22.502Z,998.32
2018-12-22T09:26:22.517Z,998.32
2018-12-22T09:27:22.493Z,998.31
2018-12-22T09:28:22.499Z,998.36
2018-12-22T09:29:22.433Z,998.34
2018-12-22T09:30:22.453Z,998.34
2018-12-22T09:31:22.447Z,998.28
2018-12-22T09:32:22.405Z,998.27
2018-12-22T09:33:22.431Z,998.26
2018-12-22T09:34:22.404Z,998.28
2018-12-22T09:35:22.409Z,998.24
2018-12-22T09:36:22.391Z,998.30
2018-12-22T09:37:22.359Z,998.36
2018-12-22T09:38:22.345Z,998.39
2018-12-22T09:39:22.358Z,998.38
2018-12-22T09:40:22.353Z,998.37
2018-12-22T09:41:22.313Z,998.42
2018-12-22T09:42:22.288Z,998.42
2018-12-22T09:43:22.287Z,998.40
2018-12-22T09:44:22.286Z,998.43
2018-12-22T09:45:22.288Z,998.44
2018-12-22T09:46:22.263Z,998.43
2018-12-22T09:47:22.252Z,998.44
2018-12-22T09:48:22.821Z,998.43
2018-12-22T09:49:22.492Z,998.48
2018-12-22T09:50:23.465Z,998.55
2018-12-22T09:51:23.260Z,998.49
2018-12-22T09:52:22.470Z,998.50
2018-12-22T09:53:22.255Z,998.51
2018-12-22T09:54:23.130Z,998.47
2018-12-22T09:55:22.203Z,998.46
2018-12-22T09:56:22.160Z,998.51
2018-12-22T09:57:22.161Z,998.50
2018-12-22T09:58:22.127Z,998.51
2018-12-22T09:59:22.113Z,998.48
2018-12-22T10:00:22.101Z,998.50
2018-12-22T10:01:22.883Z,998.54
2018-12-22T10:02:22.231Z,998.54
2018-12-22T10:03:22.094Z,998.65
2018-12-22T10:04:22.069Z,998.61
2018-12-22T10:05:22.047Z,998.59
2018-12-22T10:06:22.064Z,998.69
2018-12-22T10:07:22.026Z,998.73
2018-12-22T10:08:22.007Z,998.75
2018-12-22T10:09:22.011Z,998.72
2018-12-22T10:10:22.005Z,998.77
2018-12-22T10:11:22.024Z,998.71
2018-12-22T10:12:21.959Z,998.83
2018-12-22T10:13:21.966Z,998.85
2018-12-22T10:14:21.955Z,998.81
2018-12-22T10:15:21.939Z,998.85
2018-12-22T10:16:21.953Z,998.95
2018-12-22T10:17:21.928Z,998.90
2018-12-22T10:18:21.896Z,998.95
2018-12-22T10:19:21.894Z,998.95
2018-12-22T10:20:21.881Z,998.98
2018-12-22T10:21:21.915Z,999.01
2018-12-22T10:22:21.874Z,998.97
2018-12-22T10:23:21.869Z,998.99
2018-12-22T10:24:21.840Z,999.01
2018-12-22T10:25:21.823Z,999.04
2018-12-22T10:26:21.831Z,999.10
2018-12-22T10:27:22.577Z,999.12
2018-12-22T10:28:21.804Z,999.06
2018-12-22T10:29:21.803Z,999.09
2018-12-22T10:30:21.774Z,999.12
2018-12-22T10:31:21.785Z,999.17
2018-12-22T10:32:21.749Z,999.21
2018-12-22T10:33:21.737Z,999.19
2018-12-22T10:34:21.834Z,999.19
2018-12-22T10:35:21.736Z,999.19
2018-12-22T10:36:21.721Z,999.28
2018-12-22T10:37:21.683Z,999.29
2018-12-22T10:38:21.674Z,999.26
2018-12-22T10:39:21.667Z,999.33
2018-12-22T10:40:21.661Z,999.34
2018-12-22T10:41:21.671Z,999.44
2018-12-22T10:42:21.647Z,999.44
2018-12-22T10:43:21.633Z,999.42
2018-12-22T10:44:21.606Z,999.40
2018-12-22T10:45:21.608Z,999.45
2018-12-22T10:46:21.629Z,999.53
2018-12-22T10:47:21.582Z,999.50
2018-12-22T10:48:21.581Z,999.58
2018-12-22T10:49:21.566Z,999.57
2018-12-22T10:50:21.543Z,999.55
2018-12-22T10:51:24.429Z,999.57
2018-12-22T10:52:21.528Z,999.63
2018-12-22T10:53:21.566Z,999.60
2018-12-22T10:54:21.504Z,999.55
2018-12-22T10:55:21.512Z,999.57
2018-12-22T10:56:21.503Z,999.60
2018-12-22T10:57:21.473Z,999.53
2018-12-22T10:58:21.452Z,999.67
2018-12-22T10:59:21.452Z,999.60
2018-12-22T11:00:21.441Z,999.68
2018-12-22T11:01:26.487Z,999.73
2018-12-22T11:02:23.745Z,999.79
2018-12-22T11:03:21.412Z,999.73
2018-12-22T11:04:21.428Z,999.80
2018-12-22T11:05:21.401Z,999.84
2018-12-22T11:06:21.383Z,999.89
2018-12-22T11:07:21.377Z,999.99
2018-12-22T11:08:21.347Z,1000.00
2018-12-22T11:09:21.350Z,999.99
2018-12-22T11:10:21.322Z,1000.01
2018-12-22T11:11:21.387Z,1000.05
2018-12-22T11:12:21.318Z,1000.05
2018-12-22T11:13:21.293Z,1000.18
2018-12-22T11:14:21.297Z,1000.11
2018-12-22T11:15:21.294Z,1000.17
2018-12-22T11:16:21.280Z,1000.18
2018-12-22T11:17:21.246Z,1000.18
2018-12-22T11:18:21.255Z,1000.11
2018-12-22T11:19:21.221Z,1000.13
2018-12-22T11:20:21.236Z,1000.15
2018-12-22T11:21:21.237Z,1000.16
2018-12-22T11:22:21.217Z,1000.15
2018-12-22T11:23:21.183Z,1000.18
2018-12-22T11:24:21.182Z,1000.15
2018-12-22T11:25:21.191Z,1000.22
2018-12-22T11:26:21.170Z,1000.19
2018-12-22T11:27:21.135Z,1000.20
2018-12-22T11:28:21.128Z,1000.20
2018-12-22T11:29:21.109Z,1000.20
2018-12-22T11:30:21.117Z,1000.23
2018-12-22T11:31:21.114Z,1000.28
2018-12-22T11:32:21.095Z,1000.27
2018-12-22T11:33:21.073Z,1000.28
2018-12-22T11:34:21.064Z,1000.29
2018-12-22T11:35:21.050Z,1000.33
2018-12-22T11:36:21.069Z,1000.34
2018-12-22T11:37:21.011Z,1000.32
2018-12-22T11:38:21.034Z,1000.31
2018-12-22T11:39:21.807Z,1000.40
2018-12-22T11:40:20.995Z,1000.43
2018-12-22T11:41:21.011Z,1000.46
2018-12-22T11:42:20.974Z,1000.49
2018-12-22T11:43:20.949Z,1000.56
2018-12-22T11:44:20.970Z,1000.57
2018-12-22T11:45:20.956Z,1000.60
2018-12-22T11:46:20.956Z,1000.55
2018-12-22T11:47:20.932Z,1000.53
2018-12-22T11:48:20.903Z,1000.54
2018-12-22T11:49:20.884Z,1000.58
2018-12-22T11:50:20.884Z,1000.53
2018-12-22T11:51:20.909Z,1000.57
2018-12-22T11:52:20.882Z,1000.60
2018-12-22T11:53:20.873Z,1000.65
2018-12-22T11:54:20.832Z,1000.60
2018-12-22T11:55:20.835Z,1000.64
2018-12-22T11:56:20.820Z,1000.66
2018-12-22T11:57:20.841Z,1000.66
2018-12-22T11:58:20.826Z,1000.77
2018-12-22T11:59:22.427Z,1000.73
2018-12-22T12:00:20.771Z,1000.72
2018-12-22T12:01:20.766Z,1000.77
2018-12-22T12:02:20.747Z,1000.81
2018-12-22T12:03:20.764Z,1000.80
2018-12-22T12:04:20.738Z,1000.85
2018-12-22T12:05:20.734Z,1000.85
2018-12-22T12:06:20.706Z,1000.89
2018-12-22T12:07:20.716Z,1000.91
2018-12-22T12:08:20.722Z,1000.95
2018-12-22T12:09:20.689Z,1001.07
2018-12-22T12:10:20.688Z,1001.04
2018-12-22T12:11:20.668Z,1001.08
2018-12-22T12:12:20.652Z,1001.17
2018-12-22T12:13:20.655Z,1001.12
2018-12-22T12:14:20.623Z,1001.16
2018-12-22T12:15:20.600Z,1001.19
2018-12-22T12:16:20.607Z,1001.22
2018-12-22T12:17:20.587Z,1001.33
2018-12-22T12:18:20.603Z,1001.26
2018-12-22T12:19:20.561Z,1001.34
2018-12-22T12:20:20.541Z,1001.32
2018-12-22T12:21:20.549Z,1001.40
2018-12-22T12:22:20.625Z,1001.33
2018-12-22T12:23:20.507Z,1001.45
2018-12-22T12:24:20.953Z,1001.43
2018-12-22T12:25:20.502Z,1001.48
2018-12-22T12:26:20.496Z,1001.50